sensor_id;sensor_type;location;lat;lon;timestamp;temperature;humidity
18153;DHT22;9202;51.578;7.734;2022-09-09T00:00:53;16.10;99.90
18153;DHT22;9202;51.578;7.734;2022-09-09T00:02:59;16.10;99.90
18153;DHT22;9202;51.578;7.734;2022-09-09T00:05:08;16.00;99.90
18153;DHT22;9202;51.578;7.734;2022-09-09T00:07:10;16.00;99.90
18153;DHT22;9202;51.578;7.734;2022-09-09T00:09:15;15.90;99.90
18153;DHT22;9202;51.578;7.734;2022-09-09T00:11:19;15.90;99.90
18153;DHT22;9202;51.578;7.734;2022-09-09T00:13:24;15.90;99.90
18153;DHT22;9202;51.578;7.734;2022-09-09T00:15:28;15.80;99.90
18153;DHT22;9202;51.578;7.734;2022-09-09T00:17:33;15.80;99.90
18153;DHT22;9202;51.578;7.734;2022-09-09T00:19:39;15.80;99.90
18153;DHT22;9202;51.578;7.734;2022-09-09T00:21:43;15.70;99.90
18153;DHT22;9202;51.578;7.734;2022-09-09T00:23:48;15.80;99.90
18153;DHT22;9202;51.578;7.734;2022-09-09T00:25:53;15.80;99.90
18153;DHT22;9202;51.578;7.734;2022-09-09T00:27:57;15.70;99.90
18153;DHT22;9202;51.578;7.734;2022-09-09T00:30:12;15.70;99.90
18153;DHT22;9202;51.578;7.734;2022-09-09T00:32:09;15.70;99.90
18153;DHT22;9202;51.578;7.734;2022-09-09T00:34:12;15.80;99.90
18153;DHT22;9202;51.578;7.734;2022-09-09T00:36:16;15.80;99.90
18153;DHT22;9202;51.578;7.734;2022-09-09T00:38:20;15.80;99.90
18153;DHT22;9202;51.578;7.734;2022-09-09T00:40:27;15.80;99.90
18153;DHT22;9202;51.578;7.734;2022-09-09T00:42:33;15.80;99.90
18153;DHT22;9202;51.578;7.734;2022-09-09T00:44:36;15.90;99.90
18153;DHT22;9202;51.578;7.734;2022-09-09T00:46:49;15.80;99.90
18153;DHT22;9202;51.578;7.734;2022-09-09T00:48:57;15.80;99.90
18153;DHT22;9202;51.578;7.734;2022-09-09T00:51:00;15.80;99.90
18153;DHT22;9202;51.578;7.734;2022-09-09T00:53:08;15.70;99.90
18153;DHT22;9202;51.578;7.734;2022-09-09T00:55:13;15.70;99.90
18153;DHT22;9202;51.578;7.734;2022-09-09T00:57:22;15.70;99.90
18153;DHT22;9202;51.578;7.734;2022-09-09T00:59:27;15.60;99.90
18153;DHT22;9202;51.578;7.734;2022-09-09T01:01:30;15.60;99.90
18153;DHT22;9202;51.578;7.734;2022-09-09T01:03:34;15.60;99.90
18153;DHT22;9202;51.578;7.734;2022-09-09T01:05:39;15.60;99.90
18153;DHT22;9202;51.578;7.734;2022-09-09T01:07:44;15.60;99.90
18153;DHT22;9202;51.578;7.734;2022-09-09T01:09:54;15.60;99.90
18153;DHT22;9202;51.578;7.734;2022-09-09T01:11:59;15.50;99.90
18153;DHT22;9202;51.578;7.734;2022-09-09T01:14:11;15.50;99.90
18153;DHT22;9202;51.578;7.734;2022-09-09T01:16:22;15.60;99.90
18153;DHT22;9202;51.578;7.734;2022-09-09T01:18:29;15.60;99.90
18153;DHT22;9202;51.578;7.734;2022-09-09T01:20:36;15.70;99.90
18153;DHT22;9202;51.578;7.734;2022-09-09T01:22:40;15.70;99.90
18153;DHT22;9202;51.578;7.734;2022-09-09T01:24:45;15.70;99.90
18153;DHT22;9202;51.578;7.734;2022-09-09T01:26:51;15.70;99.90
18153;DHT22;9202;51.578;7.734;2022-09-09T01:28:57;15.70;99.90
18153;DHT22;9202;51.578;7.734;2022-09-09T01:31:02;15.70;99.90
18153;DHT22;9202;51.578;7.734;2022-09-09T01:33:09;15.70;99.90
18153;DHT22;9202;51.578;7.734;2022-09-09T01:35:22;15.70;99.90
18153;DHT22;9202;51.578;7.734;2022-09-09T01:37:36;15.70;99.90
18153;DHT22;9202;51.578;7.734;2022-09-09T01:39:40;15.70;99.90
18153;DHT22;9202;51.578;7.734;2022-09-09T01:41:45;15.60;99.90
18153;DHT22;9202;51.578;7.734;2022-09-09T01:43:50;15.70;99.90
18153;DHT22;9202;51.578;7.734;2022-09-09T01:45:54;15.60;99.90
18153;DHT22;9202;51.578;7.734;2022-09-09T01:47:57;15.50;99.90
18153;DHT22;9202;51.578;7.734;2022-09-09T01:50:02;15.60;99.90
18153;DHT22;9202;51.578;7.734;2022-09-09T01:54:20;15.60;99.90
18153;DHT22;9202;51.578;7.734;2022-09-09T01:56:29;15.60;99.90
18153;DHT22;9202;51.578;7.734;2022-09-09T01:58:34;15.50;99.90
18153;DHT22;9202;51.578;7.734;2022-09-09T02:00:38;15.40;99.90
18153;DHT22;9202;51.578;7.734;2022-09-09T02:02:44;15.50;99.90
18153;DHT22;9202;51.578;7.734;2022-09-09T02:04:50;15.40;99.90
18153;DHT22;9202;51.578;7.734;2022-09-09T02:06:56;15.40;99.90
18153;DHT22;9202;51.578;7.734;2022-09-09T02:09:01;15.40;99.90
18153;DHT22;9202;51.578;7.734;2022-09-09T02:11:06;15.40;99.90
18153;DHT22;9202;51.578;7.734;2022-09-09T02:13:12;15.40;99.90
18153;DHT22;9202;51.578;7.734;2022-09-09T02:15:17;15.50;99.90
18153;DHT22;9202;51.578;7.734;2022-09-09T02:17:24;15.50;99.90
18153;DHT22;9202;51.578;7.734;2022-09-09T02:19:29;15.40;99.90
18153;DHT22;9202;51.578;7.734;2022-09-09T02:21:35;15.40;99.90
18153;DHT22;9202;51.578;7.734;2022-09-09T02:23:38;15.50;99.90
18153;DHT22;9202;51.578;7.734;2022-09-09T02:25:42;15.50;99.90
18153;DHT22;9202;51.578;7.734;2022-09-09T02:27:48;15.60;99.90
18153;DHT22;9202;51.578;7.734;2022-09-09T02:29:53;15.50;99.90
18153;DHT22;9202;51.578;7.734;2022-09-09T02:31:58;15.50;99.90
18153;DHT22;9202;51.578;7.734;2022-09-09T02:34:03;15.50;99.90
18153;DHT22;9202;51.578;7.734;2022-09-09T02:36:08;15.50;99.90
18153;DHT22;9202;51.578;7.734;2022-09-09T02:38:12;15.50;99.90
18153;DHT22;9202;51.578;7.734;2022-09-09T02:40:17;15.60;99.90
18153;DHT22;9202;51.578;7.734;2022-09-09T02:42:22;15.60;99.90
18153;DHT22;9202;51.578;7.734;2022-09-09T02:44:26;15.60;99.90
18153;DHT22;9202;51.578;7.734;2022-09-09T02:46:34;15.50;99.90
18153;DHT22;9202;51.578;7.734;2022-09-09T02:48:39;15.60;99.90
18153;DHT22;9202;51.578;7.734;2022-09-09T02:50:43;15.60;99.90
18153;DHT22;9202;51.578;7.734;2022-09-09T02:52:59;15.60;99.90
18153;DHT22;9202;51.578;7.734;2022-09-09T02:55:04;15.70;99.90
18153;DHT22;9202;51.578;7.734;2022-09-09T02:57:11;15.70;99.90
18153;DHT22;9202;51.578;7.734;2022-09-09T02:59:14;15.70;99.90
18153;DHT22;9202;51.578;7.734;2022-09-09T03:01:18;15.70;99.90
18153;DHT22;9202;51.578;7.734;2022-09-09T03:03:21;15.70;99.90
18153;DHT22;9202;51.578;7.734;2022-09-09T03:05:24;15.80;99.90
18153;DHT22;9202;51.578;7.734;2022-09-09T03:07:28;15.80;99.90
18153;DHT22;9202;51.578;7.734;2022-09-09T03:09:30;15.80;99.90
18153;DHT22;9202;51.578;7.734;2022-09-09T03:11:34;15.80;99.90
18153;DHT22;9202;51.578;7.734;2022-09-09T03:13:36;15.80;99.90
18153;DHT22;9202;51.578;7.734;2022-09-09T03:15:40;15.80;99.90
18153;DHT22;9202;51.578;7.734;2022-09-09T03:17:44;15.80;99.90
18153;DHT22;9202;51.578;7.734;2022-09-09T03:19:47;15.80;99.90
18153;DHT22;9202;51.578;7.734;2022-09-09T03:21:51;15.80;99.90
18153;DHT22;9202;51.578;7.734;2022-09-09T03:23:54;15.90;99.90
18153;DHT22;9202;51.578;7.734;2022-09-09T03:25:57;15.80;99.90
18153;DHT22;9202;51.578;7.734;2022-09-09T03:28:02;15.80;99.90
18153;DHT22;9202;51.578;7.734;2022-09-09T03:30:05;15.80;99.90
18153;DHT22;9202;51.578;7.734;2022-09-09T03:32:08;15.80;99.90
18153;DHT22;9202;51.578;7.734;2022-09-09T03:34:12;15.80;99.90
18153;DHT22;9202;51.578;7.734;2022-09-09T03:36:15;15.80;99.90
18153;DHT22;9202;51.578;7.734;2022-09-09T03:38:18;15.80;99.90
18153;DHT22;9202;51.578;7.734;2022-09-09T03:40:20;15.80;99.90
18153;DHT22;9202;51.578;7.734;2022-09-09T03:42:23;15.80;99.90
18153;DHT22;9202;51.578;7.734;2022-09-09T03:44:27;15.80;99.90
18153;DHT22;9202;51.578;7.734;2022-09-09T03:46:30;15.80;99.90
18153;DHT22;9202;51.578;7.734;2022-09-09T03:48:33;15.80;99.90
18153;DHT22;9202;51.578;7.734;2022-09-09T03:50:36;15.80;99.90
18153;DHT22;9202;51.578;7.734;2022-09-09T03:52:39;15.80;99.90
18153;DHT22;9202;51.578;7.734;2022-09-09T03:54:44;15.80;99.90
18153;DHT22;9202;51.578;7.734;2022-09-09T03:56:46;15.90;99.90
18153;DHT22;9202;51.578;7.734;2022-09-09T03:58:49;15.80;99.90
18153;DHT22;9202;51.578;7.734;2022-09-09T04:00:53;15.80;99.90
18153;DHT22;9202;51.578;7.734;2022-09-09T04:02:56;15.80;99.90
18153;DHT22;9202;51.578;7.734;2022-09-09T04:04:59;15.80;99.90
18153;DHT22;9202;51.578;7.734;2022-09-09T04:07:03;15.90;99.90
18153;DHT22;9202;51.578;7.734;2022-09-09T04:09:07;15.90;99.90
18153;DHT22;9202;51.578;7.734;2022-09-09T04:11:10;15.90;99.90
18153;DHT22;9202;51.578;7.734;2022-09-09T04:13:13;15.90;99.90
18153;DHT22;9202;51.578;7.734;2022-09-09T04:15:16;15.90;99.90
18153;DHT22;9202;51.578;7.734;2022-09-09T04:17:20;15.90;99.90
18153;DHT22;9202;51.578;7.734;2022-09-09T04:19:23;15.90;99.90
18153;DHT22;9202;51.578;7.734;2022-09-09T04:21:26;15.90;99.90
18153;DHT22;9202;51.578;7.734;2022-09-09T04:23:29;16.00;99.90
18153;DHT22;9202;51.578;7.734;2022-09-09T04:25:32;16.00;99.90
18153;DHT22;9202;51.578;7.734;2022-09-09T04:27:35;15.90;99.90
18153;DHT22;9202;51.578;7.734;2022-09-09T04:29:38;15.90;99.90
18153;DHT22;9202;51.578;7.734;2022-09-09T04:31:41;15.90;99.90
18153;DHT22;9202;51.578;7.734;2022-09-09T04:33:44;16.00;99.90
18153;DHT22;9202;51.578;7.734;2022-09-09T04:35:47;15.90;99.90
18153;DHT22;9202;51.578;7.734;2022-09-09T04:37:50;15.90;99.90
18153;DHT22;9202;51.578;7.734;2022-09-09T04:39:52;16.00;99.90
18153;DHT22;9202;51.578;7.734;2022-09-09T04:41:55;15.90;99.90
18153;DHT22;9202;51.578;7.734;2022-09-09T04:43:58;16.00;99.90
18153;DHT22;9202;51.578;7.734;2022-09-09T04:46:01;16.00;99.90
18153;DHT22;9202;51.578;7.734;2022-09-09T04:48:04;15.90;99.90
18153;DHT22;9202;51.578;7.734;2022-09-09T04:50:08;15.90;99.90
18153;DHT22;9202;51.578;7.734;2022-09-09T04:52:11;15.90;99.90
18153;DHT22;9202;51.578;7.734;2022-09-09T04:54:13;15.90;99.90
18153;DHT22;9202;51.578;7.734;2022-09-09T04:56:17;15.90;99.90
18153;DHT22;9202;51.578;7.734;2022-09-09T04:58:22;15.90;99.90
18153;DHT22;9202;51.578;7.734;2022-09-09T05:00:25;15.90;99.90
18153;DHT22;9202;51.578;7.734;2022-09-09T05:02:28;15.90;99.90
18153;DHT22;9202;51.578;7.734;2022-09-09T05:04:33;15.90;99.90
18153;DHT22;9202;51.578;7.734;2022-09-09T05:06:35;15.90;99.90
18153;DHT22;9202;51.578;7.734;2022-09-09T05:08:39;15.90;99.90
18153;DHT22;9202;51.578;7.734;2022-09-09T05:10:43;16.00;99.90
18153;DHT22;9202;51.578;7.734;2022-09-09T05:12:52;16.00;99.90
18153;DHT22;9202;51.578;7.734;2022-09-09T05:14:55;16.00;99.90
18153;DHT22;9202;51.578;7.734;2022-09-09T05:16:58;16.00;99.90
18153;DHT22;9202;51.578;7.734;2022-09-09T05:19:01;16.10;99.90
18153;DHT22;9202;51.578;7.734;2022-09-09T05:21:06;16.10;99.90
18153;DHT22;9202;51.578;7.734;2022-09-09T05:23:09;16.10;99.90
18153;DHT22;9202;51.578;7.734;2022-09-09T05:25:13;16.10;99.90
18153;DHT22;9202;51.578;7.734;2022-09-09T05:29:31;16.10;99.90
18153;DHT22;9202;51.578;7.734;2022-09-09T05:31:36;16.10;99.90
18153;DHT22;9202;51.578;7.734;2022-09-09T05:33:41;16.20;99.90
18153;DHT22;9202;51.578;7.734;2022-09-09T05:35:44;16.10;99.90
18153;DHT22;9202;51.578;7.734;2022-09-09T05:37:47;16.10;99.90
18153;DHT22;9202;51.578;7.734;2022-09-09T05:39:50;16.10;99.90
18153;DHT22;9202;51.578;7.734;2022-09-09T05:41:53;16.10;99.90
18153;DHT22;9202;51.578;7.734;2022-09-09T05:43:56;16.20;99.90
18153;DHT22;9202;51.578;7.734;2022-09-09T05:46:01;16.10;99.90
18153;DHT22;9202;51.578;7.734;2022-09-09T05:48:04;16.20;99.90
18153;DHT22;9202;51.578;7.734;2022-09-09T05:50:07;16.20;99.90
18153;DHT22;9202;51.578;7.734;2022-09-09T05:52:10;16.20;99.90
18153;DHT22;9202;51.578;7.734;2022-09-09T05:54:13;16.30;99.90
18153;DHT22;9202;51.578;7.734;2022-09-09T05:58:34;16.20;99.90
18153;DHT22;9202;51.578;7.734;2022-09-09T06:00:38;16.20;99.90
18153;DHT22;9202;51.578;7.734;2022-09-09T06:02:41;16.30;99.90
18153;DHT22;9202;51.578;7.734;2022-09-09T06:04:45;16.30;99.90
18153;DHT22;9202;51.578;7.734;2022-09-09T06:06:49;16.30;99.90
18153;DHT22;9202;51.578;7.734;2022-09-09T06:08:54;16.30;99.90
18153;DHT22;9202;51.578;7.734;2022-09-09T06:11:03;16.30;99.90
18153;DHT22;9202;51.578;7.734;2022-09-09T06:13:06;16.30;99.90
18153;DHT22;9202;51.578;7.734;2022-09-09T06:15:11;16.30;99.90
18153;DHT22;9202;51.578;7.734;2022-09-09T06:17:13;16.40;99.90
18153;DHT22;9202;51.578;7.734;2022-09-09T06:19:16;16.40;99.90
18153;DHT22;9202;51.578;7.734;2022-09-09T06:21:20;16.30;99.90
18153;DHT22;9202;51.578;7.734;2022-09-09T06:23:23;16.40;99.90
18153;DHT22;9202;51.578;7.734;2022-09-09T06:25:25;16.40;99.90
18153;DHT22;9202;51.578;7.734;2022-09-09T06:27:29;16.40;99.90
18153;DHT22;9202;51.578;7.734;2022-09-09T06:29:31;16.50;99.90
18153;DHT22;9202;51.578;7.734;2022-09-09T06:31:35;16.50;99.90
18153;DHT22;9202;51.578;7.734;2022-09-09T06:33:40;16.60;99.90
18153;DHT22;9202;51.578;7.734;2022-09-09T06:35:51;16.60;99.90
18153;DHT22;9202;51.578;7.734;2022-09-09T06:37:55;16.70;99.90
18153;DHT22;9202;51.578;7.734;2022-09-09T06:40:00;16.60;99.90
18153;DHT22;9202;51.578;7.734;2022-09-09T06:42:03;16.70;99.90
18153;DHT22;9202;51.578;7.734;2022-09-09T06:44:08;16.70;99.90
18153;DHT22;9202;51.578;7.734;2022-09-09T06:46:13;16.80;99.90
18153;DHT22;9202;51.578;7.734;2022-09-09T06:48:15;16.90;99.90
18153;DHT22;9202;51.578;7.734;2022-09-09T06:50:19;16.90;99.90
18153;DHT22;9202;51.578;7.734;2022-09-09T06:52:23;16.90;99.90
18153;DHT22;9202;51.578;7.734;2022-09-09T06:54:26;16.90;99.90
18153;DHT22;9202;51.578;7.734;2022-09-09T06:56:30;16.90;99.90
18153;DHT22;9202;51.578;7.734;2022-09-09T06:58:34;17.00;99.90
18153;DHT22;9202;51.578;7.734;2022-09-09T07:00:36;16.90;99.90
18153;DHT22;9202;51.578;7.734;2022-09-09T07:02:40;17.00;99.90
18153;DHT22;9202;51.578;7.734;2022-09-09T07:04:43;17.00;99.90
18153;DHT22;9202;51.578;7.734;2022-09-09T07:06:46;17.00;99.90
18153;DHT22;9202;51.578;7.734;2022-09-09T07:08:51;16.90;99.90
18153;DHT22;9202;51.578;7.734;2022-09-09T07:11:01;17.00;99.90
18153;DHT22;9202;51.578;7.734;2022-09-09T07:13:10;17.00;99.90
18153;DHT22;9202;51.578;7.734;2022-09-09T07:15:13;17.00;99.90
18153;DHT22;9202;51.578;7.734;2022-09-09T07:17:17;17.00;99.90
18153;DHT22;9202;51.578;7.734;2022-09-09T07:19:20;17.10;99.90
18153;DHT22;9202;51.578;7.734;2022-09-09T07:21:25;17.10;99.90
18153;DHT22;9202;51.578;7.734;2022-09-09T07:23:28;17.20;99.90
18153;DHT22;9202;51.578;7.734;2022-09-09T07:25:33;17.20;99.90
18153;DHT22;9202;51.578;7.734;2022-09-09T07:27:36;17.30;99.90
18153;DHT22;9202;51.578;7.734;2022-09-09T07:29:39;17.20;99.90
18153;DHT22;9202;51.578;7.734;2022-09-09T07:31:42;17.30;99.90
18153;DHT22;9202;51.578;7.734;2022-09-09T07:33:46;17.30;99.90
18153;DHT22;9202;51.578;7.734;2022-09-09T07:35:50;17.30;99.90
18153;DHT22;9202;51.578;7.734;2022-09-09T07:37:53;17.20;99.90
18153;DHT22;9202;51.578;7.734;2022-09-09T07:39:55;17.20;99.90
18153;DHT22;9202;51.578;7.734;2022-09-09T07:41:58;17.20;99.90
18153;DHT22;9202;51.578;7.734;2022-09-09T07:44:04;17.20;99.90
18153;DHT22;9202;51.578;7.734;2022-09-09T07:46:07;17.10;99.90
18153;DHT22;9202;51.578;7.734;2022-09-09T07:48:10;17.10;99.90
18153;DHT22;9202;51.578;7.734;2022-09-09T07:50:13;17.10;99.90
18153;DHT22;9202;51.578;7.734;2022-09-09T07:52:16;17.20;99.90
18153;DHT22;9202;51.578;7.734;2022-09-09T07:54:21;17.20;99.90
18153;DHT22;9202;51.578;7.734;2022-09-09T07:56:25;17.30;99.90
18153;DHT22;9202;51.578;7.734;2022-09-09T07:58:30;17.40;99.90
18153;DHT22;9202;51.578;7.734;2022-09-09T08:00:49;17.50;99.90
18153;DHT22;9202;51.578;7.734;2022-09-09T08:02:53;17.70;99.90
18153;DHT22;9202;51.578;7.734;2022-09-09T08:04:57;17.80;99.90
18153;DHT22;9202;51.578;7.734;2022-09-09T08:07:01;17.90;99.90
18153;DHT22;9202;51.578;7.734;2022-09-09T08:09:07;17.90;99.90
18153;DHT22;9202;51.578;7.734;2022-09-09T08:11:12;17.90;99.90
18153;DHT22;9202;51.578;7.734;2022-09-09T08:13:18;17.90;99.90
18153;DHT22;9202;51.578;7.734;2022-09-09T08:15:22;17.80;99.90
18153;DHT22;9202;51.578;7.734;2022-09-09T08:17:27;17.80;99.90
18153;DHT22;9202;51.578;7.734;2022-09-09T08:19:31;17.90;99.90
18153;DHT22;9202;51.578;7.734;2022-09-09T08:21:39;17.80;99.90
18153;DHT22;9202;51.578;7.734;2022-09-09T08:23:43;17.80;99.90
18153;DHT22;9202;51.578;7.734;2022-09-09T08:25:48;17.80;99.90
18153;DHT22;9202;51.578;7.734;2022-09-09T08:27:53;17.90;99.90
18153;DHT22;9202;51.578;7.734;2022-09-09T08:29:57;17.90;99.90
18153;DHT22;9202;51.578;7.734;2022-09-09T08:32:05;18.00;99.90
18153;DHT22;9202;51.578;7.734;2022-09-09T08:34:31;18.00;99.90
18153;DHT22;9202;51.578;7.734;2022-09-09T08:36:41;18.00;99.90
18153;DHT22;9202;51.578;7.734;2022-09-09T08:38:47;18.10;99.90
18153;DHT22;9202;51.578;7.734;2022-09-09T08:40:52;18.10;99.90
18153;DHT22;9202;51.578;7.734;2022-09-09T08:42:59;18.20;99.90
18153;DHT22;9202;51.578;7.734;2022-09-09T08:45:12;18.20;99.90
18153;DHT22;9202;51.578;7.734;2022-09-09T08:47:16;18.30;99.90
18153;DHT22;9202;51.578;7.734;2022-09-09T08:49:24;18.20;99.90
18153;DHT22;9202;51.578;7.734;2022-09-09T08:51:29;18.20;99.90
18153;DHT22;9202;51.578;7.734;2022-09-09T08:53:36;18.10;99.90
18153;DHT22;9202;51.578;7.734;2022-09-09T08:55:41;18.10;99.90
18153;DHT22;9202;51.578;7.734;2022-09-09T08:57:44;18.10;99.90
18153;DHT22;9202;51.578;7.734;2022-09-09T08:59:48;18.10;99.90
18153;DHT22;9202;51.578;7.734;2022-09-09T09:01:55;18.10;99.90
18153;DHT22;9202;51.578;7.734;2022-09-09T09:04:02;18.30;99.90
18153;DHT22;9202;51.578;7.734;2022-09-09T09:06:08;18.30;99.90
18153;DHT22;9202;51.578;7.734;2022-09-09T09:08:12;18.30;99.90
18153;DHT22;9202;51.578;7.734;2022-09-09T09:10:18;18.50;99.90
18153;DHT22;9202;51.578;7.734;2022-09-09T09:12:23;18.60;99.90
18153;DHT22;9202;51.578;7.734;2022-09-09T09:14:27;18.70;99.90
18153;DHT22;9202;51.578;7.734;2022-09-09T09:16:32;18.70;99.90
18153;DHT22;9202;51.578;7.734;2022-09-09T09:18:38;18.80;99.90
18153;DHT22;9202;51.578;7.734;2022-09-09T09:20:45;18.80;99.90
18153;DHT22;9202;51.578;7.734;2022-09-09T09:22:48;18.70;99.90
18153;DHT22;9202;51.578;7.734;2022-09-09T09:24:53;18.70;99.90
18153;DHT22;9202;51.578;7.734;2022-09-09T09:26:58;18.80;99.90
18153;DHT22;9202;51.578;7.734;2022-09-09T09:29:08;18.90;99.90
18153;DHT22;9202;51.578;7.734;2022-09-09T09:31:10;18.90;99.90
18153;DHT22;9202;51.578;7.734;2022-09-09T09:33:14;19.00;99.90
18153;DHT22;9202;51.578;7.734;2022-09-09T09:35:18;19.20;99.90
18153;DHT22;9202;51.578;7.734;2022-09-09T09:37:23;19.60;99.90
18153;DHT22;9202;51.578;7.734;2022-09-09T09:39:26;20.10;99.90
18153;DHT22;9202;51.578;7.734;2022-09-09T09:41:33;20.20;99.90
18153;DHT22;9202;51.578;7.734;2022-09-09T09:43:37;20.20;99.90
18153;DHT22;9202;51.578;7.734;2022-09-09T09:45:43;20.20;99.90
18153;DHT22;9202;51.578;7.734;2022-09-09T09:47:57;20.20;99.90
18153;DHT22;9202;51.578;7.734;2022-09-09T09:52:17;20.60;99.90
18153;DHT22;9202;51.578;7.734;2022-09-09T09:54:22;21.00;99.90
18153;DHT22;9202;51.578;7.734;2022-09-09T09:56:28;21.20;99.90
18153;DHT22;9202;51.578;7.734;2022-09-09T09:58:32;21.30;99.90
18153;DHT22;9202;51.578;7.734;2022-09-09T10:00:35;21.40;99.90
18153;DHT22;9202;51.578;7.734;2022-09-09T10:02:40;21.70;99.90
18153;DHT22;9202;51.578;7.734;2022-09-09T10:04:45;22.00;99.90
18153;DHT22;9202;51.578;7.734;2022-09-09T10:06:48;21.90;99.90
18153;DHT22;9202;51.578;7.734;2022-09-09T10:08:57;21.30;99.90
18153;DHT22;9202;51.578;7.734;2022-09-09T10:13:33;21.20;99.90
18153;DHT22;9202;51.578;7.734;2022-09-09T10:15:40;21.20;99.90
18153;DHT22;9202;51.578;7.734;2022-09-09T10:17:45;21.40;99.90
18153;DHT22;9202;51.578;7.734;2022-09-09T10:19:51;21.60;99.90
18153;DHT22;9202;51.578;7.734;2022-09-09T10:22:02;21.70;99.90
18153;DHT22;9202;51.578;7.734;2022-09-09T10:24:15;21.90;99.90
18153;DHT22;9202;51.578;7.734;2022-09-09T10:26:24;21.80;99.90
18153;DHT22;9202;51.578;7.734;2022-09-09T10:28:30;21.30;99.90
18153;DHT22;9202;51.578;7.734;2022-09-09T10:30:35;20.90;99.90
18153;DHT22;9202;51.578;7.734;2022-09-09T10:32:40;20.80;99.90
18153;DHT22;9202;51.578;7.734;2022-09-09T10:34:50;20.70;99.90
18153;DHT22;9202;51.578;7.734;2022-09-09T10:36:53;20.50;99.90
18153;DHT22;9202;51.578;7.734;2022-09-09T10:38:58;20.40;99.90
18153;DHT22;9202;51.578;7.734;2022-09-09T10:41:07;20.50;99.90
18153;DHT22;9202;51.578;7.734;2022-09-09T10:43:16;20.70;99.90
18153;DHT22;9202;51.578;7.734;2022-09-09T10:45:20;21.10;99.90
18153;DHT22;9202;51.578;7.734;2022-09-09T10:47:28;21.50;99.90
18153;DHT22;9202;51.578;7.734;2022-09-09T10:49:38;21.70;99.90
18153;DHT22;9202;51.578;7.734;2022-09-09T10:51:45;21.60;99.90
18153;DHT22;9202;51.578;7.734;2022-09-09T10:53:57;21.80;99.90
18153;DHT22;9202;51.578;7.734;2022-09-09T10:56:02;21.90;99.90
18153;DHT22;9202;51.578;7.734;2022-09-09T10:58:09;22.00;99.90
18153;DHT22;9202;51.578;7.734;2022-09-09T11:00:16;22.30;99.90
18153;DHT22;9202;51.578;7.734;2022-09-09T11:02:25;22.50;99.90
18153;DHT22;9202;51.578;7.734;2022-09-09T11:04:31;22.60;99.90
18153;DHT22;9202;51.578;7.734;2022-09-09T11:06:42;22.50;99.90
18153;DHT22;9202;51.578;7.734;2022-09-09T11:08:50;22.30;99.90
18153;DHT22;9202;51.578;7.734;2022-09-09T11:11:00;22.40;99.90
18153;DHT22;9202;51.578;7.734;2022-09-09T11:13:09;22.70;99.90
18153;DHT22;9202;51.578;7.734;2022-09-09T11:15:14;22.30;99.90
18153;DHT22;9202;51.578;7.734;2022-09-09T11:17:18;21.80;99.90
18153;DHT22;9202;51.578;7.734;2022-09-09T11:19:24;21.80;99.90
18153;DHT22;9202;51.578;7.734;2022-09-09T11:21:27;21.90;99.90
18153;DHT22;9202;51.578;7.734;2022-09-09T11:23:33;21.90;99.90
18153;DHT22;9202;51.578;7.734;2022-09-09T11:25:39;22.00;99.90
18153;DHT22;9202;51.578;7.734;2022-09-09T11:27:43;22.20;99.90
18153;DHT22;9202;51.578;7.734;2022-09-09T11:29:59;22.60;99.90
18153;DHT22;9202;51.578;7.734;2022-09-09T11:32:06;22.80;99.90
18153;DHT22;9202;51.578;7.734;2022-09-09T11:34:13;22.90;99.90
18153;DHT22;9202;51.578;7.734;2022-09-09T11:36:24;22.70;99.90
18153;DHT22;9202;51.578;7.734;2022-09-09T11:38:27;22.60;99.90
18153;DHT22;9202;51.578;7.734;2022-09-09T11:40:31;22.20;99.90
18153;DHT22;9202;51.578;7.734;2022-09-09T11:42:35;22.00;99.90
18153;DHT22;9202;51.578;7.734;2022-09-09T11:44:37;21.90;99.90
18153;DHT22;9202;51.578;7.734;2022-09-09T11:46:40;22.10;99.90
18153;DHT22;9202;51.578;7.734;2022-09-09T11:51:00;22.00;99.90
18153;DHT22;9202;51.578;7.734;2022-09-09T11:53:18;21.70;99.90
18153;DHT22;9202;51.578;7.734;2022-09-09T11:55:24;21.60;99.90
18153;DHT22;9202;51.578;7.734;2022-09-09T11:57:30;22.00;99.90
18153;DHT22;9202;51.578;7.734;2022-09-09T11:59:32;22.20;99.90
18153;DHT22;9202;51.578;7.734;2022-09-09T12:01:36;22.50;99.90
18153;DHT22;9202;51.578;7.734;2022-09-09T12:03:40;22.70;99.90
18153;DHT22;9202;51.578;7.734;2022-09-09T12:05:44;22.60;99.90
18153;DHT22;9202;51.578;7.734;2022-09-09T12:07:50;22.70;99.90
18153;DHT22;9202;51.578;7.734;2022-09-09T12:09:56;22.70;99.90
18153;DHT22;9202;51.578;7.734;2022-09-09T12:14:35;22.70;99.90
18153;DHT22;9202;51.578;7.734;2022-09-09T12:16:37;22.70;99.90
18153;DHT22;9202;51.578;7.734;2022-09-09T12:18:42;22.50;99.90
18153;DHT22;9202;51.578;7.734;2022-09-09T12:20:51;22.70;99.90
18153;DHT22;9202;51.578;7.734;2022-09-09T12:23:02;22.80;99.90
18153;DHT22;9202;51.578;7.734;2022-09-09T12:25:08;22.60;99.90
18153;DHT22;9202;51.578;7.734;2022-09-09T12:27:11;22.40;99.90
18153;DHT22;9202;51.578;7.734;2022-09-09T12:29:18;22.10;99.90
18153;DHT22;9202;51.578;7.734;2022-09-09T12:31:22;22.00;99.90
18153;DHT22;9202;51.578;7.734;2022-09-09T12:33:32;21.90;99.90
18153;DHT22;9202;51.578;7.734;2022-09-09T12:35:30;22.30;99.90
18153;DHT22;9202;51.578;7.734;2022-09-09T12:37:34;22.50;99.90
18153;DHT22;9202;51.578;7.734;2022-09-09T12:39:37;22.70;99.90
18153;DHT22;9202;51.578;7.734;2022-09-09T12:44:03;22.30;99.90
18153;DHT22;9202;51.578;7.734;2022-09-09T12:46:08;21.80;99.90
18153;DHT22;9202;51.578;7.734;2022-09-09T12:48:11;21.90;99.90
18153;DHT22;9202;51.578;7.734;2022-09-09T12:50:17;21.80;99.90
18153;DHT22;9202;51.578;7.734;2022-09-09T12:52:22;21.80;99.90
18153;DHT22;9202;51.578;7.734;2022-09-09T12:54:26;21.80;99.90
18153;DHT22;9202;51.578;7.734;2022-09-09T12:56:31;21.60;99.90
18153;DHT22;9202;51.578;7.734;2022-09-09T12:58:33;21.50;99.90
18153;DHT22;9202;51.578;7.734;2022-09-09T13:00:36;21.40;99.90
18153;DHT22;9202;51.578;7.734;2022-09-09T13:02:46;21.50;99.90
18153;DHT22;9202;51.578;7.734;2022-09-09T13:04:49;21.50;99.90
18153;DHT22;9202;51.578;7.734;2022-09-09T13:06:53;21.30;99.90
18153;DHT22;9202;51.578;7.734;2022-09-09T13:09:04;21.20;99.90
18153;DHT22;9202;51.578;7.734;2022-09-09T13:11:21;21.10;99.90
18153;DHT22;9202;51.578;7.734;2022-09-09T13:13:29;21.00;99.90
18153;DHT22;9202;51.578;7.734;2022-09-09T13:15:33;20.50;99.90
18153;DHT22;9202;51.578;7.734;2022-09-09T13:17:37;20.10;99.90
18153;DHT22;9202;51.578;7.734;2022-09-09T13:19:43;19.90;99.90
18153;DHT22;9202;51.578;7.734;2022-09-09T13:21:47;19.80;99.90
18153;DHT22;9202;51.578;7.734;2022-09-09T13:23:50;19.70;99.90
18153;DHT22;9202;51.578;7.734;2022-09-09T13:25:54;19.70;99.90
18153;DHT22;9202;51.578;7.734;2022-09-09T13:27:58;19.70;99.90
18153;DHT22;9202;51.578;7.734;2022-09-09T13:30:00;19.80;99.90
18153;DHT22;9202;51.578;7.734;2022-09-09T13:32:04;19.80;99.90
18153;DHT22;9202;51.578;7.734;2022-09-09T13:34:11;19.80;99.90
18153;DHT22;9202;51.578;7.734;2022-09-09T13:36:15;19.90;99.90
18153;DHT22;9202;51.578;7.734;2022-09-09T13:38:17;19.90;99.90
18153;DHT22;9202;51.578;7.734;2022-09-09T13:40:21;19.90;99.90